Time;durP1;ratioP1;P1;durP2;ratioP2;P2;SDS_P1;SDS_P2;PMS_P1;PMS_P2;Temp;Humidity;BMP_temperature;BMP_pressure;BME280_temperature;BME280_humidity;BME280_pressure;Samples;Min_cycle;Max_cycle;Signal;HPM_P1;HPM_P2
2022/02/02 00:01:14;;;;;;;8.90;6.10;;;;;;;2.75;80.87;98316.38;108781;1268;21982;-76
2022/02/02 00:03:49;;;;;;;13.30;7.30;;;;;;;2.77;80.96;98313.02;108844;1270;21981;-77
2022/02/02 00:06:35;;;;;;;10.60;6.90;;;;;;;2.81;81.02;98311.65;108811;1267;23721;-77
2022/02/02 00:09:14;;;;;;;10.40;6.50;;;;;;;2.84;81.03;98313.44;108976;1267;22898;-77
2022/02/02 00:22:47;;;;;;;38.60;22.80;;;;;;;2.97;81.17;98310.79;110248;1256;23032;-78
2022/02/02 00:25:26;;;;;;;19.40;11.60;;;;;;;3.00;81.14;98313.48;110446;1256;21974;-78
2022/02/02 00:27:58;;;;;;;14.70;7.00;;;;;;;3.02;81.13;98313.34;110447;1250;22982;-78
2022/02/02 00:30:32;;;;;;;11.90;7.00;;;;;;;3.05;81.18;98315.41;110410;1256;24178;-78
2022/02/02 00:33:16;;;;;;;13.50;7.10;;;;;;;3.09;81.14;98314.52;109375;1261;21997;-78
2022/02/02 00:35:57;;;;;;;13.20;6.50;;;;;;;3.10;81.09;98310.38;109454;1261;21972;-78
2022/02/02 00:38:28;;;;;;;12.40;5.90;;;;;;;3.13;81.06;98320.50;109599;1262;23763;-78
2022/02/02 00:40:58;;;;;;;11.70;5.90;;;;;;;3.15;81.06;98329.52;109713;1261;22001;-78
2022/02/02 00:43:29;;;;;;;11.30;5.50;;;;;;;3.17;81.12;98329.32;109369;1261;23624;-77
2022/02/02 00:46:30;;;;;;;11.90;6.00;;;;;;;3.18;81.20;98324.61;109566;1261;23660;-78
2022/02/02 00:49:02;;;;;;;9.00;4.40;;;;;;;3.21;81.11;98329.05;109898;1257;22029;-78
2022/02/02 00:54:24;;;;;;;13.50;5.10;;;;;;;3.22;80.94;98328.75;110596;1250;22038;-77
2022/02/02 00:56:55;;;;;;;13.50;6.30;;;;;;;3.21;80.88;98326.92;110027;1256;23023;-77
2022/02/02 00:59:24;;;;;;;10.30;4.90;;;;;;;3.22;80.99;98325.94;110500;1254;22026;-78
2022/02/02 01:01:54;;;;;;;10.20;5.00;;;;;;;3.25;81.04;98322.82;109744;1261;23078;-78
2022/02/02 01:04:25;;;;;;;17.70;5.50;;;;;;;3.29;81.14;98330.05;109741;1261;23126;-78
2022/02/02 01:07:20;;;;;;;13.10;4.60;;;;;;;3.34;81.13;98333.48;109419;1262;21968;-77
2022/02/02 01:18:20;;;;;;;13.40;5.20;;;;;;;3.48;81.12;98327.22;109764;1261;21992;-79
2022/02/02 01:28:43;;;;;;;10.70;4.00;;;;;;;3.54;80.89;98341.02;110322;1256;21989;-77
2022/02/02 01:31:16;;;;;;;11.40;5.80;;;;;;;3.54;80.85;98342.21;110371;1256;24390;-76
2022/02/02 01:33:47;;;;;;;8.50;4.00;;;;;;;3.56;80.85;98344.50;110244;1256;23675;-77
2022/02/02 01:36:19;;;;;;;11.90;4.00;;;;;;;3.58;80.77;98344.94;110609;1255;21976;-77
2022/02/02 01:38:54;;;;;;;12.60;4.30;;;;;;;3.60;80.75;98353.02;110504;1250;21964;-78
2022/02/02 01:41:29;;;;;;;11.60;3.90;;;;;;;3.63;80.67;98348.14;110750;1248;21968;-78
2022/02/02 01:44:51;;;;;;;10.30;4.30;;;;;;;3.64;80.53;98349.44;110542;1250;21967;-77
2022/02/02 01:46:54;;;;;;;10.40;4.10;;;;;;;3.65;80.50;98357.38;110846;1250;21966;-78
2022/02/02 01:54:53;;;;;;;10.10;3.20;;;;;;;3.67;80.31;98368.25;109979;1259;21991;-80
2022/02/02 01:59:02;;;;;;;7.50;3.20;;;;;;;3.68;80.31;98373.55;110218;1259;21979;-79
2022/02/02 02:00:15;;;;;;;8.20;3.20;;;;;;;3.69;80.18;98372.77;109802;1259;23001;-78
2022/02/02 02:02:44;;;;;;;5.60;2.70;;;;;;;3.70;80.18;98368.04;110328;1258;22068;-78
2022/02/02 02:05:14;;;;;;;6.30;3.10;;;;;;;3.72;80.03;98368.56;110122;1259;23631;-78
2022/02/02 02:07:43;;;;;;;7.40;2.50;;;;;;;3.72;79.86;98369.60;109994;1253;21963;-78
2022/02/02 02:10:13;;;;;;;10.20;2.70;;;;;;;3.71;79.85;98370.39;110098;1256;23000;-78
2022/02/02 02:12:54;;;;;;;5.90;2.80;;;;;;;3.70;79.76;98368.83;110297;1256;23129;-78
2022/02/02 02:15:29;;;;;;;9.30;2.80;;;;;;;3.69;79.77;98373.05;110072;1259;21979;-78
2022/02/02 02:18:03;;;;;;;6.90;2.80;;;;;;;3.68;79.67;98374.23;110171;1259;22041;-79
2022/02/02 02:20:35;;;;;;;6.00;3.20;;;;;;;3.68;79.68;98374.74;110125;1256;22321;-79
2022/02/02 02:23:05;;;;;;;9.30;3.10;;;;;;;3.68;79.66;98375.98;109201;1264;21975;-78
2022/02/02 02:25:41;;;;;;;9.60;3.20;;;;;;;3.68;79.66;98374.25;109532;1264;24463;-79
2022/02/02 02:28:30;;;;;;;9.00;4.40;;;;;;;3.67;79.63;98376.77;109766;1259;23068;-77
2022/02/02 02:31:06;;;;;;;8.50;3.40;;;;;;;3.67;79.57;98375.96;110534;1256;22434;-78
2022/02/02 02:56:07;;;;;;;10.60;3.60;;;;;;;3.69;79.65;98379.58;109982;1259;22855;-78
2022/02/02 02:59:33;;;;;;;11.40;4.20;;;;;;;3.69;79.70;98378.46;110334;1256;21984;-78
2022/02/02 03:02:14;;;;;;;11.50;4.50;;;;;;;3.71;79.73;98381.39;110461;1253;21977;-78
2022/02/02 03:30:21;;;;;;;17.10;6.20;;;;;;;3.95;79.61;98402.14;108827;1270;22052;-80
2022/02/02 03:34:39;;;;;;;18.40;4.80;;;;;;;3.97;79.55;98407.31;108943;1267;21982;-80
2022/02/02 03:50:13;;;;;;;15.50;4.60;;;;;;;4.07;79.02;98420.23;110376;1253;22033;-79
2022/02/02 03:59:02;;;;;;;14.10;5.70;;;;;;;4.07;78.88;98432.38;110482;1255;23678;-77
2022/02/02 04:09:33;;;;;;;14.70;5.20;;;;;;;4.09;78.81;98440.82;110379;1254;21962;-78
2022/02/02 04:59:16;;;;;;;13.30;5.30;;;;;;;4.08;78.73;98459.48;109773;1261;22747;-78
2022/02/02 05:07:19;;;;;;;19.30;6.20;;;;;;;4.09;78.64;98468.39;109937;1259;21963;-78
2022/02/02 05:20:47;;;;;;;15.30;5.40;;;;;;;4.06;78.58;98477.94;110800;1254;21978;-79
2022/02/02 05:43:39;;;;;;;21.30;8.60;;;;;;;4.04;78.86;98490.04;109676;1264;23836;-81
2022/02/02 05:53:34;;;;;;;14.70;5.40;;;;;;;4.11;78.80;98494.81;110101;1257;22036;-80
2022/02/02 05:56:07;;;;;;;11.10;4.60;;;;;;;4.14;78.81;98498.35;110863;1250;21957;-78
2022/02/02 05:58:41;;;;;;;17.50;6.50;;;;;;;4.16;78.75;98498.23;110160;1256;21968;-80
2022/02/02 06:01:15;;;;;;;15.60;5.20;;;;;;;4.19;78.66;98497.90;109904;1261;21986;-81
2022/02/02 06:04:02;;;;;;;11.40;6.10;;;;;;;4.22;78.71;98498.08;109843;1262;22763;-80
2022/02/02 06:06:33;;;;;;;16.60;6.00;;;;;;;4.25;78.59;98497.00;110091;1259;23053;-79
2022/02/02 06:09:06;;;;;;;16.40;5.30;;;;;;;4.26;78.49;98502.30;109833;1259;21974;-79
2022/02/02 06:11:52;;;;;;;;;;;;;;;;;;;;;
2022/02/02 06:14:28;;;;;;;;;;;;;;;4.32;78.23;98508.30;109208;1267;23069;-79
2022/02/02 06:17:05;;;;;;;12.50;5.00;;;;;;;4.28;78.22;98510.00;109378;1265;23718;-80
2022/02/02 06:19:38;;;;;;;12.20;5.60;;;;;;;4.28;78.16;98511.55;109743;1260;24345;-80
2022/02/02 06:22:21;;;;;;;13.30;4.90;;;;;;;4.31;78.12;98515.08;110182;1260;22213;-80
2022/02/02 06:25:04;;;;;;;18.50;5.90;;;;;;;4.32;77.89;98523.64;110184;1259;21988;-80
2022/02/02 06:27:37;;;;;;;17.10;5.80;;;;;;;4.34;77.85;98532.02;110021;1259;24410;-79
2022/02/02 06:30:10;;;;;;;14.40;6.10;;;;;;;4.36;77.81;98533.44;110108;1254;23598;-81
2022/02/02 06:33:32;;;;;;;11.20;5.50;;;;;;;4.40;77.65;98537.38;110617;1253;21959;-80
2022/02/02 06:36:05;;;;;;;16.30;6.30;;;;;;;4.41;77.47;98543.26;110317;1255;21978;-80
2022/02/02 06:38:39;;;;;;;14.10;5.90;;;;;;;4.41;77.38;98549.29;110766;1250;24315;-79
2022/02/02 06:41:10;;;;;;;10.70;5.00;;;;;;;4.43;77.29;98552.06;111082;1250;22033;-81
2022/02/02 06:43:43;;;;;;;13.80;7.30;;;;;;;4.43;77.08;98557.63;110514;1256;21990;-81
2022/02/02 06:46:21;;;;;;;27.10;10.70;;;;;;;4.40;76.92;98564.52;110574;1256;22901;-80
2022/02/02 06:48:51;;;;;;;41.80;16.10;;;;;;;4.39;76.89;98567.52;110614;1256;21988;-81
2022/02/02 06:51:32;;;;;;;37.90;14.30;;;;;;;4.38;76.82;98567.55;110328;1260;21989;-80
2022/02/02 06:54:18;;;;;;;43.70;16.30;;;;;;;4.40;76.86;98572.80;109789;1261;21975;-80
2022/02/02 06:57:09;;;;;;;30.70;13.30;;;;;;;4.40;76.69;98582.83;109815;1262;22846;-81
2022/02/02 07:00:37;;;;;;;20.70;10.70;;;;;;;4.39;76.57;98588.07;109119;1267;23199;-79
2022/02/02 07:08:38;;;;;;;15.20;6.80;;;;;;;4.33;76.50;98597.48;109170;1267;21989;-80
2022/02/02 07:11:18;;;;;;;16.40;5.10;;;;;;;4.30;76.50;98604.02;109297;1267;22308;-82
2022/02/02 07:16:53;;;;;;;11.60;5.40;;;;;;;4.30;76.42;98608.23;109561;1261;21986;-80
2022/02/02 07:20:18;;;;;;;16.00;5.50;;;;;;;4.30;76.42;98608.88;109126;1267;21995;-82
2022/02/02 07:27:46;;;;;;;17.20;8.00;;;;;;;4.54;76.42;98617.45;110522;1257;21976;-81
2022/02/02 07:30:27;;;;;;;20.00;6.50;;;;;;;4.57;76.21;98622.01;110206;1257;24434;-80
2022/02/02 07:33:13;;;;;;;15.30;5.70;;;;;;;4.57;76.06;98621.97;110469;1259;22998;-80
2022/02/02 07:36:00;;;;;;;13.80;6.20;;;;;;;4.57;75.80;98619.55;110201;1257;23618;-80
2022/02/02 07:39:09;;;;;;;15.60;6.20;;;;;;;4.55;75.53;98622.41;110480;1250;22889;-78
2022/02/02 07:41:46;;;;;;;15.10;6.50;;;;;;;4.59;75.88;98624.51;110114;1257;21988;-80
2022/02/02 07:44:24;;;;;;;15.00;6.80;;;;;;;4.65;75.86;98629.17;109845;1258;24916;-81
2022/02/02 07:46:59;;;;;;;20.00;7.40;;;;;;;4.67;75.36;98629.36;109384;1264;21974;-79
2022/02/02 07:49:33;;;;;;;17.90;5.70;;;;;;;4.70;75.44;98628.14;109632;1264;22019;-80
2022/02/02 07:52:04;;;;;;;14.00;6.20;;;;;;;4.79;75.57;98636.52;109461;1264;22054;-79
2022/02/02 07:54:42;;;;;;;17.30;5.60;;;;;;;4.89;75.52;98642.90;109482;1266;22058;-78
2022/02/02 07:57:27;;;;;;;12.10;5.40;;;;;;;5.00;75.43;98648.16;109494;1264;22035;-79
2022/02/02 08:00:01;;;;;;;17.20;6.50;;;;;;;5.03;74.92;98645.58;109463;1264;21982;-81
2022/02/02 08:05:09;;;;;;;12.90;5.20;;;;;;;4.95;74.22;98656.71;109930;1261;21962;-79
2022/02/02 08:08:34;;;;;;;14.90;5.80;;;;;;;4.89;74.16;98659.64;109193;1264;21991;-79
2022/02/02 08:10:38;;;;;;;16.70;5.60;;;;;;;4.84;74.12;98657.82;109177;1264;21975;-79
2022/02/02 08:13:37;;;;;;;11.00;5.30;;;;;;;4.78;74.10;98665.17;109202;1265;23613;-78
2022/02/02 08:16:22;;;;;;;15.60;5.30;;;;;;;4.70;74.19;98665.77;109253;1264;23164;-79
2022/02/02 08:18:54;;;;;;;15.60;6.20;;;;;;;4.67;74.29;98668.89;109244;1261;23044;-79
2022/02/02 08:21:27;;;;;;;16.50;7.00;;;;;;;4.66;74.32;98670.48;110122;1257;21966;-79
2022/02/02 08:23:56;;;;;;;17.40;6.10;;;;;;;4.63;74.22;98675.08;109992;1257;21981;-78
2022/02/02 08:26:26;;;;;;;14.90;5.60;;;;;;;4.60;74.30;98681.74;110137;1253;21953;-79
2022/02/02 08:29:00;;;;;;;17.30;6.40;;;;;;;4.59;74.32;98690.77;110335;1253;23000;-82
2022/02/02 08:31:36;;;;;;;15.50;6.10;;;;;;;4.60;74.29;98693.77;110553;1256;22007;-79
2022/02/02 08:34:11;;;;;;;12.60;6.30;;;;;;;4.63;74.38;98695.74;110275;1257;22488;-79
2022/02/02 08:37:11;;;;;;;13.50;6.00;;;;;;;4.67;74.31;98700.86;110729;1253;21975;-79
2022/02/02 08:40:00;;;;;;;14.00;5.10;;;;;;;4.67;74.07;98706.55;110725;1253;23815;-79
2022/02/02 08:42:36;;;;;;;14.60;6.30;;;;;;;4.68;74.07;98713.80;110323;1256;23775;-78
2022/02/02 08:45:21;;;;;;;14.90;7.10;;;;;;;4.71;74.17;98718.17;110541;1253;21972;-79
2022/02/02 08:47:58;;;;;;;15.90;6.70;;;;;;;4.74;74.04;98718.16;110322;1256;21966;-79
2022/02/02 08:50:42;;;;;;;14.50;5.70;;;;;;;4.77;73.83;98721.16;109694;1260;23598;-79
2022/02/02 08:56:37;;;;;;;14.20;5.40;;;;;;;4.88;73.90;98729.39;110213;1260;23070;-78
2022/02/02 08:58:49;;;;;;;10.70;5.00;;;;;;;5.02;73.94;98736.03;110213;1259;22071;-79
2022/02/02 09:01:25;;;;;;;16.00;5.20;;;;;;;5.25;74.20;98744.63;109972;1259;22309;-79
2022/02/02 09:06:53;;;;;;;12.00;4.40;;;;;;;5.69;73.29;98754.50;109976;1259;23783;-77
2022/02/02 09:09:37;;;;;;;16.80;6.30;;;;;;;5.80;72.08;98760.16;110283;1256;21963;-79
2022/02/02 09:33:55;;;;;;;12.50;4.90;;;;;;;5.48;70.59;98790.19;110855;1251;21980;-77
2022/02/02 09:36:28;;;;;;;;;;;;;;;5.45;70.35;98789.82;110199;1259;24362;-77
2022/02/02 09:39:11;;;;;;;16.30;5.10;;;;;;;5.38;70.55;98792.14;110349;1258;23759;-78
2022/02/02 09:41:50;;;;;;;13.80;4.90;;;;;;;5.39;70.62;98794.02;110306;1257;22005;-78
2022/02/02 09:44:26;;;;;;;12.40;4.80;;;;;;;5.40;70.47;98793.31;110371;1256;22249;-78
2022/02/02 09:47:07;;;;;;;9.60;4.40;;;;;;;5.38;70.10;98798.98;109587;1261;22021;-78
2022/02/02 09:52:18;;;;;;;9.50;3.80;;;;;;;5.31;70.04;98803.31;109596;1263;21996;-79
2022/02/02 10:00:59;;;;;;;9.50;4.10;;;;;;;5.35;70.20;98807.95;110259;1257;21982;-80
2022/02/02 10:06:25;;;;;;;13.90;5.70;;;;;;;5.41;70.39;98823.98;110444;1253;23695;-78
2022/02/02 10:14:33;;;;;;;;;;;;;;;5.49;69.80;98840.93;110399;1258;23823;-78
2022/02/02 10:17:09;;;;;;;9.60;4.10;;;;;;;5.39;69.97;98841.86;110287;1257;22986;-78
2022/02/02 10:19:39;;;;;;;10.30;5.20;;;;;;;5.41;70.20;98842.79;110460;1256;22013;-78
2022/02/02 10:22:23;;;;;;;10.30;4.50;;;;;;;5.48;70.25;98843.64;109761;1263;21985;-79
2022/02/02 10:24:59;;;;;;;10.90;4.10;;;;;;;5.49;69.98;98845.05;109393;1263;21981;-79
2022/02/02 10:27:35;;;;;;;10.80;3.40;;;;;;;5.44;69.72;98845.15;109981;1260;23605;-78
2022/02/02 10:30:23;;;;;;;9.20;3.60;;;;;;;5.36;69.65;98846.92;109962;1259;21981;-79
2022/02/02 10:32:52;;;;;;;12.00;5.80;;;;;;;5.30;69.73;98849.79;110078;1256;23257;-78
2022/02/02 10:35:45;;;;;;;11.70;4.90;;;;;;;5.28;69.88;98847.29;110154;1257;22837;-78
2022/02/02 10:38:35;;;;;;;10.60;4.90;;;;;;;5.29;69.99;98853.98;110374;1257;22232;-78
2022/02/02 10:43:51;;;;;;;13.00;5.70;;;;;;;5.33;70.05;98856.26;110747;1251;21962;-77
2022/02/02 10:52:28;;;;;;;13.30;5.80;;;;;;;5.29;69.72;98858.83;110349;1257;23713;-79
2022/02/02 10:58:31;;;;;;;13.90;6.50;;;;;;;5.31;70.04;98859.39;110277;1257;21972;-79
2022/02/02 11:06:39;;;;;;;13.00;4.90;;;;;;;5.24;69.68;98882.58;110639;1251;22024;-78
2022/02/02 11:09:18;;;;;;;14.50;6.90;;;;;;;5.18;69.76;98890.95;110707;1253;21966;-78
2022/02/02 11:11:52;;;;;;;27.20;14.40;;;;;;;5.11;69.80;98894.51;110669;1251;21972;-79
2022/02/02 11:14:34;;;;;;;12.20;7.30;;;;;;;5.01;69.80;98895.61;110740;1251;22129;-79
2022/02/02 11:18:04;;;;;;;15.40;7.40;;;;;;;4.89;69.92;98901.21;110597;1254;22026;-79
2022/02/02 11:20:41;;;;;;;49.40;21.80;;;;;;;4.79;70.58;98902.89;109617;1263;23616;-78
2022/02/02 11:23:11;;;;;;;23.90;14.60;;;;;;;4.77;70.91;98905.25;109366;1263;23055;-78
2022/02/02 11:25:59;;;;;;;16.80;9.50;;;;;;;4.77;71.21;98906.42;109254;1263;22116;-78
2022/02/02 11:28:36;;;;;;;13.00;5.50;;;;;;;4.80;71.59;98909.58;109094;1268;22488;-79
2022/02/02 11:31:18;;;;;;;9.50;5.40;;;;;;;4.80;71.77;98927.17;108922;1267;22497;-78
2022/02/02 11:33:57;;;;;;;16.90;8.20;;;;;;;4.75;71.80;98942.23;109210;1267;22852;-79
2022/02/02 11:36:38;;;;;;;13.50;7.50;;;;;;;4.69;71.93;98947.65;109548;1263;22304;-79
2022/02/02 11:39:32;;;;;;;11.50;6.90;;;;;;;4.63;72.11;98952.14;109269;1263;22399;-79
2022/02/02 11:42:17;;;;;;;15.80;7.60;;;;;;;4.60;72.54;98955.13;109158;1267;22064;-78
2022/02/02 11:44:54;;;;;;;12.80;7.00;;;;;;;4.59;72.75;98958.77;109084;1267;22013;-79
2022/02/02 11:47:49;;;;;;;11.30;6.50;;;;;;;4.56;72.92;98967.23;109147;1265;21989;-78
2022/02/02 11:50:55;;;;;;;15.50;7.80;;;;;;;4.55;73.04;98975.73;109044;1270;21995;-78
2022/02/02 11:53:52;;;;;;;11.90;6.80;;;;;;;4.53;73.30;98981.37;109717;1264;22003;-79
2022/02/02 11:56:27;;;;;;;20.80;12.90;;;;;;;4.53;73.53;98988.68;109871;1261;22975;-79
2022/02/02 11:58:58;;;;;;;23.40;14.80;;;;;;;4.55;73.82;98998.23;109169;1266;21986;-79
2022/02/02 12:01:43;;;;;;;18.90;11.60;;;;;;;4.58;73.90;98998.60;109793;1260;22170;-78
2022/02/02 12:04:36;;;;;;;19.50;10.10;;;;;;;4.59;73.93;98997.30;109619;1260;22741;-78
2022/02/02 12:07:21;;;;;;;16.00;11.10;;;;;;;4.58;74.02;99008.86;109271;1266;22056;-79
2022/02/02 12:09:59;;;;;;;18.00;10.90;;;;;;;4.55;73.91;99013.89;109597;1264;23587;-79
2022/02/02 12:27:45;;;;;;;19.70;14.20;;;;;;;4.49;74.51;99039.10;109223;1267;22519;-79
2022/02/02 13:03:17;;;;;;;8.40;5.50;;;;;;;4.22;75.68;99120.00;108704;1274;24055;-78
2022/02/02 13:05:56;;;;;;;7.00;5.10;;;;;;;4.19;75.68;99125.30;108680;1273;22287;-79
2022/02/02 13:08:28;;;;;;;11.10;6.20;;;;;;;4.23;76.15;99126.38;108780;1273;22109;-79
2022/02/02 13:11:08;;;;;;;11.70;6.00;;;;;;;4.29;76.17;99124.92;108364;1276;22007;-78
2022/02/02 13:13:37;;;;;;;9.50;6.30;;;;;;;4.33;76.19;99140.91;108435;1275;22011;-79
2022/02/02 13:16:14;;;;;;;9.50;5.80;;;;;;;4.34;76.11;99152.56;108587;1267;22089;-79
2022/02/02 13:19:18;;;;;;;15.00;7.70;;;;;;;4.34;76.03;99158.67;109649;1263;23589;-81
2022/02/02 13:22:04;;;;;;;8.20;5.60;;;;;;;4.37;76.10;99168.33;109363;1265;21981;-78
2022/02/02 13:24:37;;;;;;;7.40;4.50;;;;;;;4.37;75.94;99177.09;109395;1267;21982;-79
2022/02/02 13:27:16;;;;;;;8.60;5.40;;;;;;;4.36;75.84;99186.95;109407;1257;23730;-80
2022/02/02 13:29:54;;;;;;;5.90;4.10;;;;;;;4.37;75.92;99192.61;110235;1257;21987;-80
2022/02/02 13:32:43;;;;;;;4.50;3.20;;;;;;;4.36;75.68;99196.52;110053;1257;23681;-78
2022/02/02 13:35:26;;;;;;;7.30;5.10;;;;;;;4.32;75.53;99205.96;110548;1251;23733;-78
2022/02/02 13:38:18;;;;;;;6.50;4.90;;;;;;;4.30;75.49;99214.77;110672;1251;23569;-77
2022/02/02 13:44:05;;;;;;;9.50;5.70;;;;;;;4.21;75.32;99240.17;110600;1251;22108;-78
2022/02/02 13:49:57;;;;;;;5.30;3.60;;;;;;;4.21;75.65;99259.68;110525;1251;24471;-79
2022/02/02 13:52:46;;;;;;;8.60;4.90;;;;;;;4.17;75.40;99269.55;111011;1253;23048;-78
2022/02/02 13:55:37;;;;;;;6.10;4.20;;;;;;;4.08;75.29;99276.02;110608;1250;23146;-78
2022/02/02 13:58:34;;;;;;;8.60;5.40;;;;;;;4.05;75.38;99281.74;110716;1251;21980;-78
2022/02/02 14:06:32;;;;;;;11.30;7.30;;;;;;;4.08;75.46;99316.27;110635;1251;23676;-78
2022/02/02 14:31:39;;;;;;;8.70;5.80;;;;;;;3.97;75.05;99370.73;110446;1257;21971;-79
2022/02/02 14:34:31;;;;;;;10.30;6.50;;;;;;;4.01;75.10;99374.39;110939;1257;21980;-78
2022/02/02 14:37:02;;;;;;;6.50;4.70;;;;;;;4.06;75.02;99377.77;109718;1260;23559;-79
2022/02/02 14:42:32;;;;;;;6.00;4.80;;;;;;;4.03;74.78;99389.17;110112;1260;23830;-79
2022/02/02 14:45:12;;;;;;;7.10;5.30;;;;;;;4.01;74.67;99397.71;110170;1260;24311;-78
2022/02/02 14:47:59;;;;;;;6.60;4.20;;;;;;;3.99;74.49;99409.95;109903;1260;22712;-78
2022/02/02 14:50:34;;;;;;;7.80;5.50;;;;;;;3.94;74.35;99423.48;109902;1261;22003;-78
2022/02/02 14:53:33;;;;;;;6.70;5.30;;;;;;;3.90;74.36;99435.40;109852;1260;22585;-79
2022/02/02 14:56:32;;;;;;;8.80;6.20;;;;;;;3.87;74.40;99441.09;110008;1258;22367;-79
2022/02/02 15:25:01;;;;;;;9.00;5.60;;;;;;;3.34;74.14;99522.73;110741;1251;21967;-79
2022/02/02 15:27:38;;;;;;;9.20;6.70;;;;;;;3.32;74.12;99524.48;110927;1250;23734;-79
2022/02/02 15:32:59;;;;;;;9.60;7.10;;;;;;;3.23;73.93;99540.04;111006;1250;22055;-79
2022/02/02 15:35:33;;;;;;;9.20;7.00;;;;;;;3.19;73.98;99555.56;110823;1251;21959;-79
2022/02/02 15:38:06;;;;;;;10.10;7.20;;;;;;;3.15;73.94;99563.27;110780;1251;22281;-78
2022/02/02 15:40:42;;;;;;;9.60;6.30;;;;;;;3.11;73.99;99570.70;110619;1251;23685;-78
2022/02/02 16:05:30;;;;;;;11.10;8.00;;;;;;;3.04;74.22;99643.55;108824;1276;23337;-79
2022/02/02 16:08:05;;;;;;;10.00;6.40;;;;;;;3.04;74.25;99652.80;108991;1267;175830;-77
2022/02/02 16:10:53;;;;;;;10.70;7.40;;;;;;;3.01;74.16;99660.17;109058;1269;23879;-79
2022/02/02 16:16:23;;;;;;;12.30;7.80;;;;;;;2.92;74.10;99672.16;109166;1267;23821;-80
2022/02/02 16:19:17;;;;;;;11.00;7.70;;;;;;;2.88;74.15;99684.10;109799;1263;22048;-78
2022/02/02 16:25:27;;;;;;;15.90;9.90;;;;;;;2.84;74.17;99702.77;109591;1263;21995;-80
2022/02/02 16:36:06;;;;;;;13.30;10.50;;;;;;;2.76;74.16;99720.07;109308;1267;23018;-80
2022/02/02 16:38:50;;;;;;;9.40;7.60;;;;;;;2.74;74.22;99719.62;109204;1268;22733;-79
2022/02/02 16:44:16;;;;;;;12.10;7.20;;;;;;;2.64;74.39;99734.74;109825;1262;22131;-80
2022/02/02 16:46:46;;;;;;;10.20;6.10;;;;;;;2.62;74.50;99743.44;110028;1261;22092;-80
2022/02/02 16:49:16;;;;;;;10.90;6.10;;;;;;;2.64;74.53;99750.18;110010;1256;23007;-80
2022/02/02 16:51:45;;;;;;;8.10;6.00;;;;;;;2.66;74.41;99758.17;110256;1258;21968;-79
2022/02/02 16:54:24;;;;;;;11.00;5.70;;;;;;;2.66;74.37;99764.44;110112;1257;23034;-79
2022/02/02 16:57:27;;;;;;;9.80;6.00;;;;;;;2.65;74.35;99769.23;110504;1257;23003;-80
2022/02/02 17:30:44;;;;;;;10.70;6.80;;;;;;;2.64;74.82;99857.15;111368;1250;22179;-80
2022/02/02 17:33:24;;;;;;;10.50;7.20;;;;;;;2.65;74.86;99860.67;111148;1250;23593;-81
2022/02/02 17:38:46;;;;;;;10.90;7.10;;;;;;;2.66;74.95;99868.23;111261;1250;22892;-81
2022/02/02 17:44:20;;;;;;;14.30;9.30;;;;;;;2.66;74.86;99876.23;111117;1254;21976;-81
2022/02/02 18:20:05;;;;;;;12.40;7.60;;;;;;;2.61;74.52;99928.50;110673;1250;22032;-78
2022/02/02 18:22:42;;;;;;;16.30;9.90;;;;;;;2.59;74.37;99939.78;110447;1251;22051;-78
2022/02/02 18:25:32;;;;;;;15.20;9.10;;;;;;;2.57;74.34;99948.80;111029;1250;23820;-78
2022/02/02 18:28:10;;;;;;;17.40;8.30;;;;;;;2.55;74.34;99957.95;110750;1251;23133;-79
2022/02/02 18:33:49;;;;;;;14.00;7.60;;;;;;;2.58;74.30;99968.89;110954;1250;22060;-78
2022/02/02 18:36:38;;;;;;;13.20;7.80;;;;;;;2.59;74.33;99977.30;110636;1250;21977;-77
2022/02/02 18:56:04;;;;;;;8.10;6.20;;;;;;;2.47;73.94;100013.90;110017;1261;21960;-82
2022/02/02 18:58:49;;;;;;;12.50;7.50;;;;;;;2.43;74.05;100022.95;110794;1254;21976;-81
2022/02/02 19:02:12;;;;;;;11.90;7.70;;;;;;;2.40;74.11;100025.25;111199;1250;21943;-79
2022/02/02 19:39:19;;;;;;;13.50;11.00;;;;;;;2.33;74.68;100110.77;110700;1256;21963;-81
2022/02/02 20:12:19;;;;;;;22.30;12.60;;;;;;;2.45;74.54;100164.77;110373;1259;23028;-80
2022/02/02 20:14:48;;;;;;;16.70;11.20;;;;;;;2.46;74.49;100170.94;110238;1259;21987;-78
2022/02/02 20:17:23;;;;;;;18.30;11.30;;;;;;;2.46;74.42;100181.94;109714;1262;23039;-78
2022/02/02 20:20:01;;;;;;;18.20;12.60;;;;;;;2.46;74.48;100194.80;109403;1262;23052;-80
2022/02/02 20:22:33;;;;;;;21.80;14.50;;;;;;;2.46;74.55;100202.60;109591;1262;21982;-79
2022/02/02 20:25:05;;;;;;;24.10;15.00;;;;;;;2.47;74.51;100204.09;109512;1260;23763;-80
2022/02/02 20:27:37;;;;;;;22.60;14.70;;;;;;;2.47;74.44;100205.97;109917;1261;21984;-80
2022/02/02 20:30:11;;;;;;;22.90;14.30;;;;;;;2.46;74.45;100206.59;109951;1260;23689;-79
2022/02/02 20:32:47;;;;;;;22.10;14.10;;;;;;;2.46;74.56;100209.42;110044;1256;23056;-79
2022/02/02 20:35:16;;;;;;;21.30;14.90;;;;;;;2.44;74.50;100214.77;110124;1257;22034;-79
2022/02/02 20:37:46;;;;;;;20.90;12.70;;;;;;;2.42;74.57;100227.06;110498;1256;21985;-78
2022/02/02 20:40:15;;;;;;;18.60;12.30;;;;;;;2.41;74.61;100223.31;110120;1260;22774;-78
2022/02/02 21:05:08;;;;;;;12.20;7.50;;;;;;;2.38;75.20;100272.73;110528;1250;23015;-78
2022/02/02 21:10:28;;;;;;;7.90;6.10;;;;;;;2.25;74.63;100286.55;110582;1253;21975;-78
2022/02/02 21:15:49;;;;;;;10.40;6.90;;;;;;;2.09;74.79;100291.45;110598;1253;22959;-78
2022/02/02 21:18:22;;;;;;;6.20;5.50;;;;;;;2.05;74.93;100297.98;109905;1261;22300;-78
2022/02/02 21:20:58;;;;;;;6.70;5.90;;;;;;;2.02;75.01;100297.17;109889;1262;22060;-78
2022/02/02 21:23:55;;;;;;;8.10;5.50;;;;;;;2.00;75.18;100302.50;109987;1260;22997;-79
2022/02/02 21:29:06;;;;;;;8.90;5.50;;;;;;;1.98;75.25;100307.21;110053;1256;22007;-79
2022/02/02 21:31:39;;;;;;;10.10;6.60;;;;;;;1.93;75.29;100314.87;110069;1259;22897;-78
2022/02/02 21:34:08;;;;;;;;;;;;;;;1.89;75.33;100318.12;110359;1256;22002;-78
2022/02/02 21:36:38;;;;;;;8.80;6.60;;;;;;;1.81;75.64;100318.83;110638;1250;23026;-78
2022/02/02 21:39:20;;;;;;;7.70;6.40;;;;;;;1.82;75.83;100322.98;110822;1250;21929;-79
2022/02/02 21:41:53;;;;;;;10.00;6.50;;;;;;;1.86;75.91;100331.99;110942;1251;23800;-78
2022/02/02 21:44:28;;;;;;;12.70;9.10;;;;;;;1.90;75.88;100330.90;110296;1256;22037;-78
2022/02/02 21:46:58;;;;;;;13.80;9.40;;;;;;;1.87;75.79;100339.41;110235;1256;21975;-78
2022/02/02 21:49:29;;;;;;;11.10;8.10;;;;;;;1.84;75.77;100341.24;110300;1256;22034;-78
2022/02/02 21:52:05;;;;;;;10.80;8.50;;;;;;;1.80;75.73;100340.83;110294;1256;22036;-79
2022/02/02 21:54:36;;;;;;;9.30;7.50;;;;;;;1.77;75.74;100346.77;110448;1255;22840;-77
2022/02/02 21:57:06;;;;;;;8.80;6.90;;;;;;;1.73;75.71;100348.95;110288;1255;22014;-78
2022/02/02 21:59:35;;;;;;;7.60;6.80;;;;;;;1.71;75.90;100354.33;110549;1254;22089;-78
2022/02/02 22:02:07;;;;;;;9.50;6.50;;;;;;;1.69;75.95;100354.83;110490;1250;23706;-78
2022/02/02 22:04:37;;;;;;;9.20;7.60;;;;;;;1.67;76.06;100362.45;110408;1256;21975;-78
2022/02/02 22:07:06;;;;;;;10.70;6.90;;;;;;;1.62;76.08;100363.77;110259;1255;23667;-78
2022/02/02 22:09:35;;;;;;;11.10;7.80;;;;;;;1.59;76.23;100365.23;110354;1256;21979;-78
2022/02/02 22:12:08;;;;;;;;;;;;;;;1.59;76.37;100361.21;110137;1256;23692;-78
2022/02/02 22:14:46;;;;;;;11.10;7.80;;;;;;;1.51;76.47;100366.70;110377;1256;22512;-79
2022/02/02 22:17:21;;;;;;;13.00;8.50;;;;;;;1.50;76.64;100366.99;110515;1256;21966;-78
2022/02/02 22:19:54;;;;;;;;;;;;;;;1.51;76.71;100368.10;110347;1256;21963;-78
2022/02/02 22:22:26;;;;;;;12.40;9.10;;;;;;;1.47;76.86;100367.67;110447;1250;24035;-77
2022/02/02 22:24:58;;;;;;;14.00;9.50;;;;;;;1.49;76.92;100372.42;110559;1250;22040;-77
2022/02/02 22:27:29;;;;;;;13.80;9.80;;;;;;;1.51;76.86;100377.80;110849;1250;22243;-77
2022/02/02 22:30:06;;;;;;;14.40;9.30;;;;;;;1.52;76.85;100381.02;110637;1250;23586;-77
2022/02/02 22:32:37;;;;;;;12.90;8.30;;;;;;;1.56;76.99;100391.50;110693;1250;21982;-77
2022/02/02 22:35:08;;;;;;;11.70;8.80;;;;;;;1.61;77.05;100396.17;110618;1250;23147;-78
2022/02/02 22:37:37;;;;;;;10.90;7.70;;;;;;;1.64;76.96;100398.20;110631;1250;22039;-76
2022/02/02 22:40:08;;;;;;;9.80;6.50;;;;;;;1.66;76.85;100406.21;110598;1250;22171;-77